Thunder radar more information blitzortung!


Radar de pluja more information rain snow radar


Visita la nostra xarxa de llocs de meteo:

Template documentation
and downloads

And another site



No particular awareness of the weather is required.    There are no Weather-warnings

Pagina Historial Weather Underground text

Diari Resum Novembre 11, 2017 Unitats:  Imperial    Mètric   Tant
« Previous Dia
SegĂźent Dia »
Diari Setmana Mensual Anual Personalitzada
  Maxima: Minima: Media:
Temperatura: TemperatureC °F 6.2 °F 10.3 °F
Punt de rosada: DewpointC °F -0.1 °F 3.6 °F
Humitat: Humidity % 57 % 63 %
Wind Speed: WindSpeedKMH mph 0.0 mph 3.3 mph
RĂ fegues de vent: WindSpeedGustKMH mph - -
Vent:- - SSW
Pression baro: PressurehPa in 1020.9 in -
Precipitacions: 0.0 in    
Historical Graphs
 
 
Dades de taula per Novembre 11, 2017
Temps Temperatura Punt de rosada Pression baro Vent Wind Speed RĂ fegues de vent Humitat Rainfall Rate (Hourly)
TemperatureC °F DewpointC °F PressurehPa in Calm     Humidity % HourlyPrecipMM in
00:01 7.2 °F -0.1 °F 1026.0 in Calm     60 % 0.0 in
00:06 7.2 °F -0.1 °F 1026.0 in West 1.9 mph 1.9 mph 60 % 0.0 in
00:11 7.2 °F -0.1 °F 1026.0 in Calm     60 % 0.0 in
00:16 7.2 °F -0.1 °F 1026.0 in West 2.3 mph   60 % 0.0 in
00:21 7.2 °F -0.1 °F 1024.9 in West 3.7 mph 3.7 mph 60 % 0.0 in
00:26 7.3 °F 0.1 °F 1024.9 in West 1.9 mph 1.9 mph 60 % 0.0 in
00:31 7.2 °F -0.1 °F 1024.9 in West 1.9 mph 1.9 mph 60 % 0.0 in
00:36 7.3 °F 0.1 °F 1026.0 in West 1.9 mph   60 % 0.0 in
00:41 7.3 °F 0.1 °F 1026.0 in West 2.6 mph   60 % 0.0 in
00:46 7.4 °F 0.4 °F 1026.0 in NE 3.7 mph 3.7 mph 61 % 0.0 in
00:51 7.3 °F 0.3 °F 1024.9 in NNE 2.3 mph   61 % 0.0 in
00:56 7.2 °F 0.2 °F 1024.9 in WNW 1.9 mph 1.9 mph 61 % 0.0 in
01:01 7.1 °F 0.1 °F 1024.9 in NNE 3.7 mph 3.7 mph 61 % 0.0 in
01:06 7.0 °F 0.0 °F 1024.9 in NW 3.7 mph   61 % 0.0 in
01:11 7.0 °F 0.0 °F 1024.9 in NNW 3.7 mph 3.7 mph 61 % 0.0 in
01:12 7.0 °F 0.0 °F 1024.9 in WNW 3.7 mph 3.7 mph 61 % 0.0 in
01:17 6.9 °F -0.1 °F 1024.9 in WSW 3.7 mph 3.7 mph 61 % 0.0 in
01:22 6.9 °F 0.1 °F 1026.0 in WNW 3.7 mph 3.7 mph 62 % 0.0 in
01:27 6.8 °F 0.0 °F 1026.0 in WSW 3.7 mph 3.7 mph 62 % 0.0 in
01:32 6.8 °F 0.0 °F 1026.0 in WNW 1.9 mph   62 % 0.0 in
01:37 6.7 °F -0.1 °F 1024.9 in WNW 3.7 mph 3.7 mph 62 % 0.0 in
01:42 6.8 °F 0.0 °F 1024.9 in WNW 3.7 mph 3.7 mph 62 % 0.0 in
01:47 6.8 °F 0.0 °F 1024.9 in West 3.7 mph 3.7 mph 62 % 0.0 in
01:52 6.8 °F 0.0 °F 1024.9 in NNE 5.6 mph 5.6 mph 62 % 0.0 in
01:57 6.9 °F 0.3 °F 1024.9 in WNW 3.5 mph 3.5 mph 63 % 0.0 in
02:02 6.9 °F 0.1 °F 1024.9 in WNW 3.7 mph 3.7 mph 62 % 0.0 in
02:07 6.9 °F 0.1 °F 1023.9 in NNW 3.7 mph 3.7 mph 62 % 0.0 in
02:12 7.0 °F 0.2 °F 1023.9 in NW 3.7 mph 3.7 mph 62 % 0.0 in
02:17 7.0 °F 0.4 °F 1023.9 in North 3.7 mph   63 % 0.0 in
02:22 7.0 °F 0.4 °F 1023.9 in WNW 3.7 mph 3.7 mph 63 % 0.0 in
02:27 7.0 °F 0.2 °F 1023.9 in WNW 3.7 mph 3.7 mph 62 % 0.0 in
02:32 6.9 °F 0.3 °F 1023.9 in NW 2.3 mph 3.5 mph 63 % 0.0 in
02:37 6.9 °F 0.1 °F 1023.9 in West 3.5 mph 3.5 mph 62 % 0.0 in
02:42 6.8 °F 0.0 °F 1023.9 in WSW 3.7 mph 3.7 mph 62 % 0.0 in
02:47 6.8 °F 0.2 °F 1023.9 in West 1.9 mph 1.9 mph 63 % 0.0 in
02:48 6.9 °F 0.3 °F 1023.9 in West 1.9 mph 1.9 mph 63 % 0.0 in
02:53 6.9 °F 0.3 °F 1023.9 in WNW 2.6 mph 2.6 mph 63 % 0.0 in
02:58 7.0 °F 0.4 °F 1023.9 in WNW 2.3 mph 2.3 mph 63 % 0.0 in
03:03 6.9 °F 0.3 °F 1023.9 in NW 1.4 mph   63 % 0.0 in
03:08 6.9 °F 0.3 °F 1023.9 in WNW 2.3 mph   63 % 0.0 in
03:13 6.9 °F 0.3 °F 1023.9 in WNW 3.7 mph 3.7 mph 63 % 0.0 in
03:18 7.0 °F 0.4 °F 1023.9 in SW 3.7 mph 3.7 mph 63 % 0.0 in
03:23 7.0 °F 0.4 °F 1023.9 in NW 3.7 mph 3.7 mph 63 % 0.0 in
03:28 6.9 °F 0.6 °F 1023.9 in South 3.7 mph 3.7 mph 64 % 0.0 in
03:33 6.8 °F 0.2 °F 1023.9 in WSW 4.7 mph 4.7 mph 63 % 0.0 in
03:34 6.8 °F 0.2 °F 1023.9 in WSW 4.2 mph 4.2 mph 63 % 0.0 in
03:39 6.8 °F 0.2 °F 1023.9 in West 3.2 mph   63 % 0.0 in
03:44 6.8 °F 0.2 °F 1023.9 in WSW 5.6 mph 5.6 mph 63 % 0.0 in
03:49 6.9 °F 0.3 °F 1023.9 in West 3.7 mph 3.7 mph 63 % 0.0 in
03:54 7.0 °F 0.7 °F 1023.9 in NNW 3.7 mph 3.7 mph 64 % 0.0 in
03:59 7.0 °F 0.7 °F 1023.9 in ENE 3.7 mph 3.7 mph 64 % 0.0 in
04:04 6.7 °F 0.4 °F 1024.9 in NNE 5.6 mph 5.6 mph 64 % 0.0 in
04:09 6.6 °F 0.3 °F 1024.9 in ENE 3.9 mph 3.9 mph 64 % 0.0 in
04:16 6.4 °F 0.1 °F 1024.9 in NE 5.6 mph 5.6 mph 64 % 0.0 in
04:21 6.3 °F 0.2 °F 1023.9 in NNE 5.6 mph 5.6 mph 65 % 0.0 in
04:22 6.2 °F 0.1 °F 1023.9 in ENE 5.6 mph 5.6 mph 65 % 0.0 in
04:23 6.2 °F 0.1 °F 1023.9 in NNE 5.6 mph 5.6 mph 65 % 0.0 in
04:24 6.2 °F 0.1 °F 1023.9 in NNE 5.6 mph 5.6 mph 65 % 0.0 in
04:28 6.2 °F 0.1 °F 1023.9 in North 7.4 mph 7.4 mph 65 % 0.0 in
04:29 6.2 °F 0.1 °F 1023.9 in NE 5.6 mph 5.6 mph 65 % 0.0 in
04:33 6.2 °F 0.1 °F 1023.9 in North 5.6 mph 5.6 mph 65 % 0.0 in
04:38 6.2 °F 0.1 °F 1023.9 in NW 3.2 mph 3.2 mph 65 % 0.0 in
04:43 6.2 °F 0.1 °F 1023.9 in West 5.6 mph 5.6 mph 65 % 0.0 in
04:48 6.2 °F 0.1 °F 1023.9 in NNW 4.7 mph 4.7 mph 65 % 0.0 in
04:53 6.3 °F 0.2 °F 1023.9 in NNW 3.9 mph 4.2 mph 65 % 0.0 in
04:58 6.4 °F 0.3 °F 1023.9 in North 5.6 mph 5.6 mph 65 % 0.0 in
05:03 6.4 °F 0.3 °F 1023.9 in WNW 3.7 mph 3.7 mph 65 % 0.0 in
05:08 6.4 °F 0.3 °F 1023.9 in NE 5.6 mph 5.6 mph 65 % 0.0 in
05:13 6.5 °F 0.6 °F 1023.9 in ENE 3.7 mph 3.7 mph 66 % 0.0 in
05:18 6.5 °F 0.4 °F 1023.9 in NNE 5.6 mph 5.6 mph 65 % 0.0 in
05:23 6.6 °F 0.7 °F 1022.9 in NNE 3.9 mph 3.9 mph 66 % 0.0 in
05:28 6.7 °F 0.8 °F 1022.9 in North 2.6 mph 2.6 mph 66 % 0.0 in
05:33 6.7 °F 0.8 °F 1022.9 in North 5.6 mph 5.6 mph 66 % 0.0 in
05:38 6.7 °F 0.6 °F 1023.9 in ENE 3.7 mph 3.7 mph 65 % 0.0 in
05:43 6.8 °F 0.9 °F 1023.9 in East 3.7 mph 3.7 mph 66 % 0.0 in
05:48 6.8 °F 0.9 °F 1023.9 in SSE 3.7 mph 3.7 mph 66 % 0.0 in
05:53 6.8 °F 0.9 °F 1023.9 in NE 3.7 mph 3.7 mph 66 % 0.0 in
05:58 6.9 °F 1.0 °F 1023.9 in WNW 3.7 mph 3.7 mph 66 % 0.0 in
06:03 6.9 °F 1.0 °F 1023.9 in NNW 3.7 mph 3.7 mph 66 % 0.0 in
06:08 6.8 °F 0.9 °F 1023.9 in North 3.7 mph 3.7 mph 66 % 0.0 in
06:13 6.9 °F 1.0 °F 1023.9 in WNW 3.7 mph 3.7 mph 66 % 0.0 in
06:18 6.8 °F 0.9 °F 1023.9 in North 3.7 mph 3.7 mph 66 % 0.0 in
06:23 6.9 °F 1.2 °F 1023.9 in East 1.9 mph 1.9 mph 67 % 0.0 in
06:28 6.9 °F 1.0 °F 1023.9 in NNW 3.7 mph 3.7 mph 66 % 0.0 in
06:33 7.0 °F 1.3 °F 1023.9 in WNW 1.9 mph   67 % 0.0 in
06:38 6.9 °F 1.0 °F 1023.9 in West 3.7 mph 3.7 mph 66 % 0.0 in
06:39 6.9 °F 1.0 °F 1023.9 in West 1.9 mph   66 % 0.0 in
06:44 6.8 °F 0.9 °F 1023.9 in West 2.3 mph 2.3 mph 66 % 0.0 in
06:49 6.8 °F 1.1 °F 1023.9 in Calm     67 % 0.0 in
06:54 6.8 °F 1.1 °F 1023.9 in Calm     67 % 0.0 in
06:59 6.8 °F 1.1 °F 1023.9 in NNW 1.9 mph   67 % 0.0 in
07:04 6.8 °F 1.1 °F 1023.9 in Calm     67 % 0.0 in
07:09 6.7 °F 1.0 °F 1023.9 in NW 1.9 mph 1.9 mph 67 % 0.0 in
07:14 6.7 °F 1.0 °F 1023.9 in NW 3.7 mph   67 % 0.0 in
07:19 6.7 °F 1.0 °F 1023.9 in West 5.6 mph 5.6 mph 67 % 0.0 in
07:24 6.7 °F 1.0 °F 1023.9 in WNW 1.9 mph   67 % 0.0 in
07:29 6.6 °F 0.9 °F 1023.9 in West 1.9 mph 2.3 mph 67 % 0.0 in
07:34 6.5 °F 0.8 °F 1023.9 in SW 2.3 mph 2.3 mph 67 % 0.0 in
07:39 6.5 °F 0.8 °F 1023.9 in ESE 3.7 mph 3.7 mph 67 % 0.0 in
07:44 6.6 °F 0.9 °F 1023.9 in West 3.7 mph 3.7 mph 67 % 0.0 in
07:49 6.8 °F 1.3 °F 1023.9 in NNW 3.7 mph 3.7 mph 68 % 0.0 in
07:54 6.9 °F 1.2 °F 1023.9 in SW 3.7 mph 3.7 mph 67 % 0.0 in
07:59 7.1 °F 1.6 °F 1023.9 in NW 1.9 mph   68 % 0.0 in
08:04 7.3 °F 1.6 °F 1023.9 in SW 3.7 mph 3.7 mph 67 % 0.0 in
08:09 7.6 °F 2.1 °F 1023.9 in SW 3.7 mph   68 % 0.0 in
08:14 8.0 °F 2.2 °F 1023.9 in NNW 3.7 mph 3.7 mph 67 % 0.0 in
08:19 8.4 °F 2.6 °F 1024.9 in NNW 5.6 mph 5.6 mph 67 % 0.0 in
08:24 8.6 °F 2.8 °F 1024.9 in NE 3.2 mph 3.2 mph 67 % 0.0 in
08:29 8.9 °F 2.9 °F 1024.9 in NNW 3.7 mph 3.7 mph 66 % 0.0 in
08:34 9.0 °F 3.0 °F 1024.9 in ENE 3.7 mph   66 % 0.0 in
08:39 9.1 °F 3.1 °F 1024.9 in West 1.9 mph 1.9 mph 66 % 0.0 in
08:45 9.6 °F 3.6 °F 1024.9 in ENE 3.7 mph 3.7 mph 66 % 0.0 in
08:50 9.6 °F 3.3 °F 1024.9 in Calm     65 % 0.0 in
08:55 9.3 °F 3.1 °F 1024.9 in NNE 3.7 mph 3.7 mph 65 % 0.0 in
09:00 9.1 °F 2.9 °F 1024.9 in ENE 4.2 mph 4.2 mph 65 % 0.0 in
09:05 9.1 °F 2.9 °F 1024.9 in ENE 5.6 mph 5.6 mph 65 % 0.0 in
09:10 9.0 °F 2.8 °F 1024.9 in NW 3.7 mph   65 % 0.0 in
09:15 9.1 °F 2.9 °F 1024.9 in ENE 3.7 mph 3.7 mph 65 % 0.0 in
09:20 9.0 °F 2.8 °F 1024.9 in ENE 5.6 mph 5.6 mph 65 % 0.0 in
09:25 9.0 °F 2.8 °F 1024.9 in NE 1.6 mph 4.8 mph 65 % 0.0 in
09:30 9.0 °F 2.8 °F 1024.9 in Calm   3.2 mph 65 % 0.0 in
09:35 9.0 °F 3.0 °F 1024.9 in Calm   3.2 mph 66 % 0.0 in
09:40 9.0 °F 3.0 °F 1024.9 in NE 3.7 mph 3.7 mph 66 % 0.0 in
09:45 9.0 °F 3.0 °F 1024.9 in WNW 3.2 mph 3.2 mph 66 % 0.0 in
09:50 9.1 °F 2.9 °F 1024.3 in NW 1.6 mph 4.8 mph 65 % 0.0 in
09:55 9.2 °F 2.9 °F 1023.9 in NW 1.6 mph 4.8 mph 65 % 0.0 in
10:00 9.3 °F 3.1 °F 1023.9 in North 1.6 mph 3.2 mph 65 % 0.0 in
10:05 9.4 °F 3.2 °F 1023.9 in NNW 3.7 mph 3.7 mph 65 % 0.0 in
10:10 9.4 °F 3.4 °F 1023.9 in WNW 3.7 mph 3.7 mph 66 % 0.0 in
10:15 9.5 °F 3.2 °F 1023.9 in Calm   3.2 mph 65 % 0.0 in
10:20 9.5 °F 3.2 °F 1023.9 in WNW 1.6 mph 4.8 mph 65 % 0.0 in
10:25 9.5 °F 3.2 °F 1023.9 in WSW 3.7 mph 3.7 mph 65 % 0.0 in
10:30 9.5 °F 3.2 °F 1023.9 in Calm   1.6 mph 65 % 0.0 in
10:35 9.6 °F 3.3 °F 1023.9 in NE 1.9 mph   65 % 0.0 in
10:40 9.6 °F 3.3 °F 1023.9 in NE 1.9 mph   65 % 0.0 in
10:45 9.7 °F 3.4 °F 1023.9 in WNW 3.7 mph 3.7 mph 65 % 0.0 in
10:50 9.7 °F 3.4 °F 1023.9 in Calm   3.2 mph 65 % 0.0 in
10:55 9.8 °F 3.5 °F 1023.9 in Calm   4.8 mph 65 % 0.0 in
11:00 9.8 °F 3.5 °F 1023.9 in ENE 3.7 mph 3.7 mph 65 % 0.0 in
11:05 9.8 °F 3.3 °F 1024.9 in WNW 3.7 mph   64 % 0.0 in
11:10 9.8 °F 3.3 °F 1024.9 in ESE 3.9 mph   64 % 0.0 in
11:15 9.9 °F 3.4 °F 1024.9 in NW 1.6 mph 4.8 mph 64 % 0.0 in
11:20 9.9 °F 3.4 °F 1024.3 in Calm   4.8 mph 64 % 0.0 in
11:25 10.0 °F 3.5 °F 1023.9 in NW 1.6 mph 4.8 mph 64 % 0.0 in
11:30 10.0 °F 3.5 °F 1023.9 in ENE 5.6 mph 5.6 mph 64 % 0.0 in
11:35 10.1 °F 3.6 °F 1023.9 in NNE 3.2 mph 9.7 mph 64 % 0.0 in
11:40 10.2 °F 3.4 °F 1023.9 in NNE 1.9 mph   63 % 0.0 in
11:45 10.2 °F 3.5 °F 1023.9 in Calm   1.6 mph 63 % 0.0 in
11:50 10.3 °F 3.6 °F 1023.9 in WNW 1.9 mph 1.9 mph 63 % 0.0 in
11:55 10.4 °F 3.7 °F 1023.9 in ENE 3.7 mph   63 % 0.0 in
12:00 10.5 °F 3.9 °F 1023.9 in SW 2.3 mph   64 % 0.0 in
12:05 10.5 °F 3.9 °F 1023.9 in ENE 5.6 mph 5.6 mph 64 % 0.0 in
12:10 10.5 °F 3.7 °F 1023.9 in NE 1.6 mph 4.8 mph 63 % 0.0 in
12:15 10.6 °F 3.8 °F 1023.9 in NE 3.2 mph 4.8 mph 63 % 0.0 in
12:20 10.6 °F 3.8 °F 1023.9 in NNW 1.9 mph   63 % 0.0 in
12:25 10.7 °F 3.9 °F 1023.9 in WSW 3.9 mph 3.9 mph 63 % 0.0 in
12:30 10.8 °F 4.1 °F 1023.9 in NNW 1.9 mph   63 % 0.0 in
12:35 10.8 °F 4.1 °F 1023.9 in NNW 5.6 mph 5.6 mph 63 % 0.0 in
12:40 10.8 °F 4.1 °F 1023.9 in NNW 1.6 mph 3.2 mph 63 % 0.0 in
12:45 10.9 °F 4.3 °F 1023.9 in West 1.6 mph 3.2 mph 64 % 0.0 in
12:50 11.0 °F 4.4 °F 1023.9 in WSW 1.6 mph 3.2 mph 64 % 0.0 in
12:55 11.0 °F 4.4 °F 1023.9 in Calm     64 % 0.0 in
13:00 11.1 °F 4.3 °F 1023.9 in NE 3.7 mph   63 % 0.0 in
13:05 11.2 °F 4.6 °F 1023.9 in Calm   1.6 mph 64 % 0.0 in
13:10 11.2 °F 4.6 °F 1023.9 in WNW 1.6 mph 3.2 mph 64 % 0.0 in
13:15 11.3 °F 4.9 °F 1023.9 in Calm     65 % 0.0 in
13:20 11.3 °F 4.9 °F 1023.9 in SW 2.3 mph   65 % 0.0 in
13:25 11.4 °F 4.8 °F 1023.9 in SW 1.9 mph   64 % 0.0 in
13:30 11.4 °F 5.1 °F 1023.9 in SW 1.6 mph 3.2 mph 65 % 0.0 in
13:35 11.6 °F 5.0 °F 1023.9 in Calm   4.8 mph 64 % 0.0 in
13:40 11.7 °F 5.1 °F 1023.9 in Calm   3.2 mph 64 % 0.0 in
13:45 11.7 °F 5.1 °F 1023.9 in West 3.7 mph 3.7 mph 64 % 0.0 in
13:50 11.8 °F 5.2 °F 1022.9 in NW 1.9 mph   64 % 0.0 in
13:55 11.9 °F 5.3 °F 1022.9 in Calm   1.6 mph 64 % 0.0 in
14:00 12.1 °F 5.7 °F 1022.9 in SW 3.7 mph 3.7 mph 65 % 0.0 in
14:05 12.1 °F 5.7 °F 1022.9 in SW 1.6 mph 3.2 mph 65 % 0.0 in
14:10 12.1 °F 5.5 °F 1022.9 in WSW 3.7 mph 3.7 mph 64 % 0.0 in
14:15 12.2 °F 5.6 °F 1022.9 in NW 3.7 mph 3.7 mph 64 % 0.0 in
14:20 12.2 °F 5.6 °F 1022.9 in NW 3.2 mph 6.4 mph 64 % 0.0 in
14:25 12.2 °F 5.6 °F 1022.9 in NW 3.7 mph 3.7 mph 64 % 0.0 in
14:30 12.3 °F 5.7 °F 1022.9 in NNE 1.9 mph   64 % 0.0 in
14:35 12.3 °F 5.7 °F 1022.9 in WSW 3.2 mph 3.2 mph 64 % 0.0 in
14:40 12.4 °F 5.8 °F 1022.9 in West 3.7 mph   64 % 0.0 in
14:45 12.5 °F 5.9 °F 1022.9 in NW 1.9 mph   64 % 0.0 in
14:50 12.6 °F 5.9 °F 1022.9 in NW 3.7 mph 3.7 mph 64 % 0.0 in
14:55 12.6 °F 5.9 °F 1022.9 in NE 3.7 mph 3.7 mph 64 % 0.0 in
15:00 12.6 °F 5.9 °F 1022.9 in WSW 11.1 mph 11.1 mph 64 % 0.0 in
15:05 13.1 °F 6.4 °F 1022.9 in NW 4.2 mph 4.2 mph 64 % 0.0 in
15:08 13.3 °F 6.6 °F 1022.9 in WNW 3.7 mph 3.7 mph 64 % 0.0 in
15:13 13.4 °F 6.7 °F 1022.9 in NW 7.4 mph 7.4 mph 64 % 0.0 in
15:18 13.8 °F 6.9 °F 1022.9 in NW 5.6 mph 5.6 mph 63 % 0.0 in
15:23 13.9 °F 7.2 °F 1022.9 in WNW 3.7 mph 3.7 mph 64 % 0.0 in
15:28 14.2 °F 7.3 °F 1022.9 in WSW 3.7 mph 3.7 mph 63 % 0.0 in
15:33 14.6 °F 7.6 °F 1022.9 in NW 3.7 mph 3.7 mph 63 % 0.0 in
15:38 15.1 °F 8.1 °F 1022.9 in WSW 9.3 mph 9.3 mph 63 % 0.0 in
15:43 15.6 °F 8.3 °F 1022.9 in WNW 3.7 mph 3.9 mph 62 % 0.0 in
15:48 15.7 °F 8.4 °F 1022.9 in WSW 6.4 mph 6.4 mph 62 % 0.0 in
15:53 15.9 °F 8.6 °F 1022.9 in West 11.1 mph 11.1 mph 62 % 0.0 in
15:58 16.3 °F 8.8 °F 1022.9 in WSW 5.6 mph 5.6 mph 61 % 0.0 in
16:03 16.4 °F 8.6 °F 1022.9 in WSW 6.4 mph 6.4 mph 60 % 0.0 in
16:08 16.5 °F 8.7 °F 1021.9 in NNW 7.4 mph 7.4 mph 60 % 0.0 in
16:13 16.6 °F 8.6 °F 1021.9 in West 7.4 mph 7.4 mph 59 % 0.0 in
16:18 16.6 °F 8.6 °F 1021.9 in SW 9.3 mph 9.3 mph 59 % 0.0 in
16:23 16.6 °F 8.6 °F 1021.9 in West 7.4 mph 7.4 mph 59 % 0.0 in
16:28 16.6 °F 8.3 °F 1021.9 in West 7.4 mph 7.4 mph 58 % 0.0 in
16:33 16.6 °F 8.1 °F 1021.9 in West 7.4 mph 7.4 mph 57 % 0.0 in
16:38 16.7 °F 8.1 °F 1021.9 in WSW 12.6 mph 12.6 mph 57 % 0.0 in
16:43 16.6 °F 8.1 °F 1021.9 in West 7.4 mph 7.4 mph 57 % 0.0 in
16:48 16.5 °F 7.9 °F 1021.9 in West 9.3 mph 9.3 mph 57 % 0.0 in
16:53 16.5 °F 7.9 °F 1021.9 in WSW 3.7 mph 3.7 mph 57 % 0.0 in
16:58 16.5 °F 7.9 °F 1021.9 in SW 1.9 mph   57 % 0.0 in
17:03 16.4 °F 7.8 °F 1021.9 in Calm     57 % 0.0 in
17:08 16.3 °F 7.8 °F 1020.9 in SW 1.9 mph   57 % 0.0 in
17:13 16.0 °F 7.5 °F 1020.9 in WNW 3.2 mph 3.2 mph 57 % 0.0 in
17:18 15.9 °F 7.4 °F 1020.9 in WNW 1.9 mph   57 % 0.0 in
17:23 15.6 °F 7.3 °F 1021.9 in Calm     58 % 0.0 in
17:25 15.6 °F 7.3 °F 1021.9 in WNW 1.9 mph   58 % 0.0 in
17:30 15.3 °F 7.1 °F 1021.9 in WNW 1.9 mph   58 % 0.0 in
17:35 15.3 °F 7.1 °F 1021.9 in NW 3.7 mph 3.7 mph 58 % 0.0 in
17:40 15.1 °F 6.9 °F 1021.9 in WNW 1.9 mph 1.9 mph 58 % 0.0 in
17:45 15.0 °F 7.1 °F 1021.9 in West 3.7 mph 3.7 mph 59 % 0.0 in
17:50 14.8 °F 6.8 °F 1021.9 in WSW 3.5 mph 3.5 mph 59 % 0.0 in
17:55 14.7 °F 6.8 °F 1021.9 in SW 3.7 mph 3.7 mph 59 % 0.0 in
18:00 14.4 °F 6.5 °F 1021.9 in WSW 3.7 mph 3.7 mph 59 % 0.0 in
18:05 14.3 °F 6.4 °F 1021.9 in WSW 1.9 mph   59 % 0.0 in
18:10 14.2 °F 6.3 °F 1021.9 in Calm     59 % 0.0 in
18:15 14.0 °F 6.1 °F 1021.9 in NNW 1.9 mph   59 % 0.0 in
18:20 14.0 °F 6.1 °F 1020.9 in NE 3.7 mph 3.7 mph 59 % 0.0 in
18:25 14.1 °F 6.4 °F 1020.9 in NE 3.7 mph 3.7 mph 60 % 0.0 in
18:30 14.0 °F 6.3 °F 1020.9 in ENE 3.7 mph 3.7 mph 60 % 0.0 in
18:35 13.9 °F 6.3 °F 1021.9 in NE 3.7 mph 3.7 mph 60 % 0.0 in
18:40 13.6 °F 6.0 °F 1021.9 in NNE 1.9 mph 1.9 mph 60 % 0.0 in
18:45 13.5 °F 5.9 °F 1021.9 in Calm     60 % 0.0 in
18:50 13.4 °F 5.8 °F 1021.9 in NNW 3.7 mph 3.7 mph 60 % 0.0 in
18:55 13.3 °F 5.7 °F 1021.9 in North 3.7 mph 3.7 mph 60 % 0.0 in
19:00 13.3 °F 5.7 °F 1021.9 in North 3.7 mph 3.7 mph 60 % 0.0 in
19:05 13.1 °F 5.7 °F 1020.9 in NNE 4.7 mph 4.7 mph 61 % 0.0 in
19:10 12.9 °F 5.6 °F 1020.9 in WSW 5.6 mph 5.6 mph 61 % 0.0 in
19:15 12.8 °F 5.4 °F 1020.9 in NE 3.7 mph 3.7 mph 61 % 0.0 in
19:20 12.7 °F 5.4 °F 1020.9 in WNW 1.9 mph   61 % 0.0 in
19:25 12.7 °F 5.6 °F 1020.9 in NNW 1.9 mph 1.9 mph 62 % 0.0 in
19:30 12.7 °F 5.6 °F 1020.9 in NNW 1.9 mph   62 % 0.0 in
19:35 12.5 °F 5.4 °F 1020.9 in NE 1.9 mph 1.9 mph 62 % 0.0 in
19:40 12.1 °F 5.1 °F 1020.9 in West 3.9 mph 3.9 mph 62 % 0.0 in
19:45 12.0 °F 4.9 °F 1020.9 in WSW 5.6 mph 5.6 mph 62 % 0.0 in
19:50 12.0 °F 4.9 °F 1021.9 in NW 3.7 mph 3.7 mph 62 % 0.0 in
19:55 12.3 °F 5.4 °F 1021.9 in NW 3.7 mph 3.7 mph 63 % 0.0 in
20:00 12.6 °F 5.7 °F 1021.9 in WNW 5.6 mph 5.6 mph 63 % 0.0 in
20:05 12.9 °F 6.0 °F 1021.9 in SW 3.7 mph 3.7 mph 63 % 0.0 in
20:10 13.0 °F 6.1 °F 1021.9 in WNW 2.3 mph   63 % 0.0 in
20:15 13.0 °F 6.3 °F 1021.9 in Calm     64 % 0.0 in
20:16 13.0 °F 6.3 °F 1021.9 in Calm     64 % 0.0 in
20:21 13.1 °F 6.4 °F 1021.9 in Calm     64 % 0.0 in
20:26 13.2 °F 6.6 °F 1021.9 in Calm     64 % 0.0 in
20:31 13.2 °F 6.6 °F 1021.9 in WNW 3.7 mph   64 % 0.0 in
20:36 13.3 °F 6.6 °F 1021.9 in NNE 3.7 mph 3.7 mph 64 % 0.0 in
20:41 13.3 °F 6.4 °F 1021.9 in NNW 7.4 mph 7.4 mph 63 % 0.0 in
20:46 13.4 °F 6.5 °F 1021.9 in NNW 1.9 mph 1.9 mph 63 % 0.0 in
20:51 13.5 °F 6.6 °F 1021.9 in WNW 3.7 mph 3.7 mph 63 % 0.0 in
20:56 13.6 °F 6.7 °F 1021.9 in SW 5.6 mph 5.6 mph 63 % 0.0 in
21:01 13.6 °F 6.7 °F 1021.9 in WNW 3.7 mph 3.7 mph 63 % 0.0 in
21:06 13.7 °F 6.8 °F 1021.9 in West 2.6 mph 2.6 mph 63 % 0.0 in
21:11 13.6 °F 6.7 °F 1021.9 in North 3.7 mph   63 % 0.0 in
21:16 13.5 °F 6.6 °F 1021.9 in West 2.6 mph 2.6 mph 63 % 0.0 in
21:21 13.4 °F 6.5 °F 1021.9 in Calm     63 % 0.0 in
21:26 13.2 °F 6.3 °F 1021.9 in WNW 3.7 mph   63 % 0.0 in
21:31 13.2 °F 6.3 °F 1021.9 in WNW 5.6 mph 5.6 mph 63 % 0.0 in
21:36 13.1 °F 6.2 °F 1021.9 in West 3.7 mph 3.7 mph 63 % 0.0 in
21:38 13.2 °F 6.3 °F 1021.9 in SW 3.7 mph 3.7 mph 63 % 0.0 in
21:43 13.2 °F 6.3 °F 1021.9 in North 3.7 mph 3.7 mph 63 % 0.0 in
21:48 13.1 °F 6.2 °F 1021.9 in West 3.7 mph 3.7 mph 63 % 0.0 in
21:53 13.0 °F 6.1 °F 1021.9 in West 3.2 mph 3.2 mph 63 % 0.0 in
21:58 13.0 °F 6.1 °F 1021.9 in WNW 3.7 mph   63 % 0.0 in
22:03 12.9 °F 6.0 °F 1021.9 in ENE 1.9 mph   63 % 0.0 in
22:08 12.7 °F 6.1 °F 1021.9 in NE 1.9 mph 1.9 mph 64 % 0.0 in
22:13 12.6 °F 5.9 °F 1021.9 in NNE 4.2 mph 4.2 mph 64 % 0.0 in
22:18 12.4 °F 5.8 °F 1021.9 in ENE 2.6 mph 2.6 mph 64 % 0.0 in
22:23 12.4 °F 5.8 °F 1021.9 in NNE 3.9 mph 3.9 mph 64 % 0.0 in
22:29 12.2 °F 5.6 °F 1021.9 in NNE 3.7 mph 3.7 mph 64 % 0.0 in
22:34 12.2 °F 5.6 °F 1021.9 in NW 1.9 mph 1.9 mph 64 % 0.0 in
22:39 12.3 °F 5.7 °F 1021.9 in NE 3.7 mph 3.7 mph 64 % 0.0 in
22:44 12.0 °F 5.4 °F 1021.9 in NNE 1.9 mph 1.9 mph 64 % 0.0 in
22:49 11.7 °F 5.3 °F 1021.9 in NNE 3.7 mph 3.7 mph 65 % 0.0 in
22:54 11.7 °F 5.3 °F 1021.9 in NNE 1.9 mph   65 % 0.0 in
22:59 11.7 °F 5.3 °F 1021.9 in ENE 1.9 mph 2.3 mph 65 % 0.0 in
23:04 11.6 °F 5.2 °F 1021.9 in North 3.7 mph 3.7 mph 65 % 0.0 in
23:09 11.6 °F 5.2 °F 1021.9 in North 5.0 mph 5.0 mph 65 % 0.0 in
23:14 11.6 °F 5.2 °F 1021.9 in North 3.7 mph 3.7 mph 65 % 0.0 in
23:19 11.6 °F 5.2 °F 1021.9 in NNE 5.6 mph 5.6 mph 65 % 0.0 in
23:24 11.6 °F 5.2 °F 1021.9 in West 3.7 mph 3.7 mph 65 % 0.0 in
23:29 11.6 °F 5.2 °F 1021.9 in North 5.6 mph 5.6 mph 65 % 0.0 in
23:34 11.6 °F 5.2 °F 1021.9 in North 5.6 mph 5.6 mph 65 % 0.0 in
23:39 11.6 °F 5.2 °F 1021.9 in North 5.6 mph 5.6 mph 65 % 0.0 in
23:44 11.5 °F 5.2 °F 1021.9 in WNW 3.7 mph   65 % 0.0 in
23:49 11.5 °F 5.4 °F 1021.9 in NNW 1.9 mph 1.9 mph 66 % 0.0 in
23:54 11.4 °F 5.3 °F 1021.9 in NE 1.9 mph 1.9 mph 66 % 0.0 in
23:59 11.3 °F 5.2 °F 1021.9 in NNW 1.9 mph   66 % 0.0 in
Meteo Sesrovires
Elogis d' Weather Underground - 4.25 mb

Guio original per  Jim McMurry - jmcmurry@mwt.net Adaptat per a la plantilla per  Wim van der Kuil - Leuven-Template.eu

Trobareu la nostra informacio del temps tambe a:

Weather Underground

AWEKAS